Time;durP1;ratioP1;P1;durP2;ratioP2;P2;SDS_P1;SDS_P2;PMS_P1;PMS_P2;Temp;Humidity;BMP_temperature;BMP_pressure;BME280_temperature;BME280_humidity;BME280_pressure;Samples;Min_cycle;Max_cycle;Signal;HPM_P1;HPM_P2
2023/04/21 00:01:58;;;;;;;;;;;;;;;21.93;31.44;97379.19;4902506;29;1331;-77
2023/04/21 00:04:23;;;;;;;;;;;;;;;21.94;31.20;97375.09;4901692;29;1063;-78
2023/04/21 00:06:52;;;;;;;;;;;;;;;21.90;31.25;97368.78;4921286;29;1907;-77
2023/04/21 00:09:17;;;;;;;;;;;;;;;22.73;30.83;97372.81;4919830;29;950;-77
2023/04/21 00:11:43;;;;;;;;;;;;;;;22.49;31.36;97381.09;4940454;29;942;-77
2023/04/21 00:14:08;;;;;;;;;;;;;;;22.53;31.18;97371.16;4938698;29;1089;-77
2023/04/21 00:16:34;;;;;;;;;;;;;;;22.66;30.49;97371.06;4959668;29;1040;-77
2023/04/21 00:19:01;;;;;;;;;;;;;;;22.09;31.44;97373.31;4942744;29;976;-78
2023/04/21 00:21:26;;;;;;;;;;;;;;;21.83;31.50;97359.31;4959436;29;982;-77
2023/04/21 00:23:52;;;;;;;;;;;;;;;22.21;31.00;97361.09;4959008;29;1002;-77
2023/04/21 00:26:19;;;;;;;;;;;;;;;21.84;31.65;97355.22;4959433;29;1903;-77
2023/04/21 00:28:47;;;;;;;;;;;;;;;21.73;31.58;97371.81;4942877;29;1242;-77
2023/04/21 00:31:13;;;;;;;;;;;;;;;21.82;31.35;97369.06;4943429;29;1120;-76
2023/04/21 00:33:38;;;;;;;;;;;;;;;21.78;31.46;97376.09;4958612;29;1163;-77
2023/04/21 00:36:04;;;;;;;;;;;;;;;22.04;31.28;97362.56;4973913;28;1101;-77
2023/04/21 00:38:30;;;;;;;;;;;;;;;21.89;31.13;97367.19;4980898;28;1237;-77
2023/04/21 00:40:55;;;;;;;;;;;;;;;21.99;31.16;97354.66;4981641;28;1199;-77
2023/04/21 00:43:21;;;;;;;;;;;;;;;21.88;30.98;97352.25;4983686;28;1241;-77
2023/04/21 00:45:46;;;;;;;;;;;;;;;22.66;30.94;97353.28;5018441;28;1979;-77
2023/04/21 00:48:12;;;;;;;;;;;;;;;22.93;30.66;97358.25;5017993;28;1017;-77
2023/04/21 00:50:38;;;;;;;;;;;;;;;23.06;30.37;97356.06;5018303;28;1519;-76
2023/04/21 00:53:05;;;;;;;;;;;;;;;22.84;30.35;97356.94;5017691;28;1290;-76
2023/04/21 00:55:30;;;;;;;;;;;;;;;22.37;30.52;97351.56;5018350;28;922;-77
2023/04/21 00:57:56;;;;;;;;;;;;;;;22.12;30.77;97346.88;5019231;28;962;-77
2023/04/21 01:00:26;;;;;;;;;;;;;;;21.94;30.88;97346.78;5002175;28;1327;-77
2023/04/21 01:02:51;;;;;;;;;;;;;;;22.02;30.70;97348.88;5017302;28;981;-76
2023/04/21 01:05:17;;;;;;;;;;;;;;;22.00;31.05;97344.91;5001463;28;1930;-77
2023/04/21 01:07:43;;;;;;;;;;;;;;;22.06;30.43;97340.22;5018814;28;915;-76
2023/04/21 01:10:09;;;;;;;;;;;;;;;21.93;30.77;97340.31;5001255;28;1164;-77
2023/04/21 01:12:41;;;;;;;;;;;;;;;21.87;30.99;97344.22;5018916;28;1074;-77
2023/04/21 01:15:07;;;;;;;;;;;;;;;21.99;30.89;97337.69;5017445;28;922;-78
2023/04/21 01:17:37;;;;;;;;;;;;;;;22.00;30.82;97340.03;5001552;28;1166;-77
2023/04/21 01:20:05;;;;;;;;;;;;;;;21.76;31.36;97333.28;4981119;28;1235;-77
2023/04/21 01:22:33;;;;;;;;;;;;;;;22.42;30.97;97333.19;4938865;29;1374;-77
2023/04/21 01:24:58;;;;;;;;;;;;;;;22.73;30.97;97333.13;4922434;29;1911;-77
2023/04/21 01:27:25;;;;;;;;;;;;;;;22.64;30.87;97322.56;4907571;29;1124;-77
2023/04/21 01:29:52;;;;;;;;;;;;;;;22.29;31.09;97317.06;4907601;29;1037;-77
2023/04/21 01:32:19;;;;;;;;;;;;;;;21.99;31.63;97320.69;4938815;29;1000;-77
2023/04/21 01:34:45;;;;;;;;;;;;;;;22.06;31.03;97326.06;4907208;29;1241;-77
2023/04/21 01:37:11;;;;;;;;;;;;;;;22.20;31.01;97331.19;4922780;29;1185;-77
2023/04/21 01:39:50;;;;;;;;;;;;;;;22.11;31.31;97316.97;4906793;29;1280;-76
2023/04/21 01:42:15;;;;;;;;;;;;;;;21.89;31.38;97313.38;4904092;29;1059;-77
2023/04/21 01:44:41;;;;;;;;;;;;;;;22.28;30.90;97321.16;4887725;29;1907;-76
2023/04/21 01:47:06;;;;;;;;;;;;;;;22.00;31.23;97311.72;4903991;29;971;-77
2023/04/21 01:49:32;;;;;;;;;;;;;;;21.75;31.56;97318.34;4903720;29;1120;-77
2023/04/21 01:51:58;;;;;;;;;;;;;;;22.29;31.24;97317.06;4888470;29;1338;-77
2023/04/21 01:54:23;;;;;;;;;;;;;;;22.47;31.10;97309.88;4921299;29;998;-76
2023/04/21 01:56:49;;;;;;;;;;;;;;;22.43;31.57;97314.91;4950736;28;1097;-78
2023/04/21 01:59:16;;;;;;;;;;;;;;;22.28;31.29;97314.72;4956865;29;1237;-77
2023/04/21 02:01:41;;;;;;;;;;;;;;;22.10;31.22;97315.38;4926246;29;1231;-77
2023/04/21 02:04:07;;;;;;;;;;;;;;;21.81;31.54;97312.84;4941338;29;1079;-77
2023/04/21 02:06:34;;;;;;;;;;;;;;;21.62;31.77;97309.13;4925779;29;1915;-77
2023/04/21 02:09:00;;;;;;;;;;;;;;;21.84;31.75;97309.91;4957145;29;1097;-77
2023/04/21 02:11:29;;;;;;;;;;;;;;;22.63;31.18;97306.78;4910903;29;1324;-76
2023/04/21 02:13:55;;;;;;;;;;;;;;;22.67;30.98;97301.75;4967240;28;996;-77
2023/04/21 02:16:24;;;;;;;;;;;;;;;22.44;31.07;97308.00;4961192;28;1144;-77
2023/04/21 02:18:53;;;;;;;;;;;;;;;22.06;31.29;97303.41;4944363;28;1208;-77
2023/04/21 02:21:20;;;;;;;;;;;;;;;22.04;30.98;97300.25;4945028;28;1251;-77
2023/04/21 02:23:47;;;;;;;;;;;;;;;21.93;30.83;97299.88;4959748;28;1260;-77
2023/04/21 02:26:13;;;;;;;;;;;;;;;22.16;30.60;97305.03;4944502;28;1969;-77
2023/04/21 02:28:38;;;;;;;;;;;;;;;22.26;30.55;97294.53;4975844;28;930;-77
2023/04/21 02:31:04;;;;;;;;;;;;;;;22.04;30.97;97305.91;4944805;28;1115;-77
2023/04/21 02:33:32;;;;;;;;;;;;;;;21.96;30.99;97304.59;4947813;28;1121;-77
2023/04/21 02:35:58;;;;;;;;;;;;;;;21.88;30.86;97304.09;4979943;28;1150;-77
2023/04/21 02:38:23;;;;;;;;;;;;;;;21.99;31.03;97303.69;4956356;28;1221;-77
2023/04/21 02:40:52;;;;;;;;;;;;;;;21.55;31.78;97300.91;4941230;29;1140;-76
2023/04/21 02:43:17;;;;;;;;;;;;;;;21.89;30.91;97294.34;4956435;29;1304;-77
2023/04/21 02:45:43;;;;;;;;;;;;;;;21.88;30.80;97286.31;4973323;28;1987;-76
2023/04/21 02:48:09;;;;;;;;;;;;;;;21.83;31.04;97288.50;4979073;28;1143;-77
2023/04/21 02:50:35;;;;;;;;;;;;;;;22.55;31.20;97288.50;4963288;28;1124;-77
2023/04/21 02:53:00;;;;;;;;;;;;;;;22.62;31.17;97293.88;4995386;28;990;-77
2023/04/21 02:55:26;;;;;;;;;;;;;;;22.46;31.22;97292.09;4962926;28;1227;-77
2023/04/21 02:57:51;;;;;;;;;;;;;;;22.48;30.82;97294.44;4995101;28;994;-78
2023/04/21 03:00:17;;;;;;;;;;;;;;;22.07;31.15;97288.78;4979064;28;992;-77
2023/04/21 03:02:43;;;;;;;;;;;;;;;21.71;31.75;97278.06;4979251;28;1116;-76
2023/04/21 03:05:09;;;;;;;;;;;;;;;21.90;31.22;97284.59;4956511;29;1898;-76
2023/04/21 03:07:35;;;;;;;;;;;;;;;21.96;31.16;97281.94;4941052;29;985;-77
2023/04/21 03:10:03;;;;;;;;;;;;;;;22.10;31.07;97278.56;4954612;28;1135;-76
2023/04/21 03:12:28;;;;;;;;;;;;;;;21.68;31.66;97284.63;4979135;28;1397;-77
2023/04/21 03:14:54;;;;;;;;;;;;;;;22.11;31.62;97282.97;4978808;28;1008;-78
2023/04/21 03:17:20;;;;;;;;;;;;;;;22.53;31.08;97291.00;4979372;28;1160;-77
2023/04/21 03:19:46;;;;;;;;;;;;;;;22.63;30.64;97292.59;4978768;28;1109;-76
2023/04/21 03:22:12;;;;;;;;;;;;;;;22.17;31.04;97292.44;4979193;28;1270;-76
2023/04/21 03:24:37;;;;;;;;;;;;;;;21.82;31.64;97289.75;4995880;28;1902;-78
2023/04/21 03:27:04;;;;;;;;;;;;;;;21.85;31.06;97288.03;4983095;28;1241;-77
2023/04/21 03:29:30;;;;;;;;;;;;;;;21.87;31.19;97293.25;4982661;28;1223;-77
2023/04/21 03:31:55;;;;;;;;;;;;;;;21.91;30.85;97291.03;4983641;28;1117;-78
2023/04/21 03:34:21;;;;;;;;;;;;;;;21.92;31.03;97286.97;4982394;28;1110;-77
2023/04/21 03:36:47;;;;;;;;;;;;;;;21.84;31.01;97287.25;4982847;28;1274;-77
2023/04/21 03:39:13;;;;;;;;;;;;;;;21.82;31.32;97284.09;4982676;28;1100;-77
2023/04/21 03:41:38;;;;;;;;;;;;;;;21.71;30.98;97278.06;4985406;28;1187;-77
2023/04/21 03:44:04;;;;;;;;;;;;;;;21.67;31.13;97282.28;5003197;28;1306;-78
2023/04/21 03:46:31;;;;;;;;;;;;;;;21.85;31.17;97288.81;5003702;28;1907;-78
2023/04/21 03:48:58;;;;;;;;;;;;;;;22.67;30.30;97289.63;5019263;28;893;-78
2023/04/21 03:51:24;;;;;;;;;;;;;;;22.63;30.41;97289.75;5019492;28;1013;-78
2023/04/21 03:53:49;;;;;;;;;;;;;;;22.22;30.69;97294.66;5020210;28;1177;-78
2023/04/21 03:56:15;;;;;;;;;;;;;;;22.27;30.50;97290.44;5020900;28;914;-78
2023/04/21 03:58:41;;;;;;;;;;;;;;;21.85;30.81;97297.31;5019988;28;928;-77
2023/04/21 04:01:06;;;;;;;;;;;;;;;21.72;30.88;97296.63;5003267;28;1104;-78
2023/04/21 04:03:32;;;;;;;;;;;;;;;21.75;30.74;97301.34;4981490;28;915;-77
2023/04/21 04:05:58;;;;;;;;;;;;;;;22.40;30.32;97307.34;4982329;28;1891;-77
2023/04/21 04:08:23;;;;;;;;;;;;;;;22.67;30.14;97298.91;4981710;28;1219;-78
2023/04/21 04:10:49;;;;;;;;;;;;;;;22.43;30.62;97309.22;4966026;28;819;-78
2023/04/21 04:13:15;;;;;;;;;;;;;;;22.29;30.09;97305.75;4981566;28;791;-78
2023/04/21 04:15:40;;;;;;;;;;;;;;;21.76;30.71;97307.78;4965953;28;1108;-78
2023/04/21 04:18:06;;;;;;;;;;;;;;;21.86;30.39;97306.59;4949774;28;893;-77
2023/04/21 04:20:31;;;;;;;;;;;;;;;21.82;30.52;97315.25;4998106;28;808;-78
2023/04/21 04:22:57;;;;;;;;;;;;;;;21.92;30.30;97320.97;4981384;28;1211;-77
2023/04/21 04:25:23;;;;;;;;;;;;;;;21.80;30.69;97314.91;4949914;28;1903;-78
2023/04/21 04:27:49;;;;;;;;;;;;;;;21.53;31.24;97323.22;4981820;28;906;-77
2023/04/21 04:30:14;;;;;;;;;;;;;;;22.27;30.55;97328.06;4949441;28;1113;-78
2023/04/21 04:32:40;;;;;;;;;;;;;;;22.60;30.04;97327.56;4981787;28;1105;-78
2023/04/21 04:35:06;;;;;;;;;;;;;;;22.63;29.89;97335.91;5008031;28;827;-78
2023/04/21 04:37:35;;;;;;;;;;;;;;;22.30;30.40;97330.00;5020846;28;1242;-78
2023/04/21 04:40:01;;;;;;;;;;;;;;;21.93;30.45;97333.88;4989160;28;1238;-78
2023/04/21 04:42:27;;;;;;;;;;;;;;;21.67;30.87;97334.03;5005794;28;1130;-78
2023/04/21 04:44:53;;;;;;;;;;;;;;;21.67;30.87;97328.38;5038882;28;1898;-77
2023/04/21 04:47:19;;;;;;;;;;;;;;;21.83;30.65;97330.97;5021644;28;834;-78
2023/04/21 04:49:44;;;;;;;;;;;;;;;22.11;30.01;97333.97;5021169;28;921;-78
2023/04/21 04:52:10;;;;;;;;;;;;;;;21.97;30.40;97329.66;5005403;28;927;-78
2023/04/21 04:54:35;;;;;;;;;;;;;;;22.40;30.44;97332.88;5021320;28;826;-78
2023/04/21 04:57:02;;;;;;;;;;;;;;;22.91;29.38;97335.25;5021271;28;1112;-78
2023/04/21 04:59:27;;;;;;;;;;;;;;;22.66;29.95;97344.75;4981216;28;952;-78
2023/04/21 05:01:53;;;;;;;;;;;;;;;22.32;30.29;97335.97;4964862;28;1125;-77
2023/04/21 05:04:18;;;;;;;;;;;;;;;22.09;30.51;97330.81;4996876;28;917;-77
2023/04/21 05:06:44;;;;;;;;;;;;;;;21.98;30.45;97331.22;4958091;29;1902;-78
2023/04/21 05:09:11;;;;;;;;;;;;;;;21.62;31.17;97328.16;4958133;29;1005;-78
2023/04/21 05:11:36;;;;;;;;;;;;;;;21.65;30.82;97333.69;4942645;29;872;-77
2023/04/21 05:14:02;;;;;;;;;;;;;;;21.93;30.43;97333.88;4942391;29;1301;-78
2023/04/21 05:16:28;;;;;;;;;;;;;;;21.77;30.84;97332.84;4910790;29;771;-78
2023/04/21 05:18:53;;;;;;;;;;;;;;;22.52;30.45;97341.25;4941620;29;1001;-77
2023/04/21 05:21:23;;;;;;;;;;;;;;;22.70;30.07;97337.69;4942624;29;907;-79
2023/04/21 05:23:49;;;;;;;;;;;;;;;22.28;30.20;97343.06;4942261;29;927;-78
2023/04/21 05:26:15;;;;;;;;;;;;;;;22.07;30.61;97333.28;4942534;29;1899;-77
2023/04/21 05:28:40;;;;;;;;;;;;;;;21.99;30.45;97329.19;4941746;29;1103;-78
2023/04/21 05:31:06;;;;;;;;;;;;;;;21.79;30.27;97327.50;4988065;28;901;-78
2023/04/21 05:33:31;;;;;;;;;;;;;;;21.71;30.63;97334.69;4996424;28;1073;-78
2023/04/21 05:35:57;;;;;;;;;;;;;;;22.41;30.58;97328.78;4996879;28;941;-78
2023/04/21 05:38:23;;;;;;;;;;;;;;;22.74;29.78;97329.81;4996196;28;1078;-78
2023/04/21 05:40:52;;;;;;;;;;;;;;;22.92;29.51;97328.31;4997401;28;896;-79
2023/04/21 05:43:18;;;;;;;;;;;;;;;21.96;30.83;97321.59;5002485;28;956;-78
2023/04/21 05:45:43;;;;;;;;;;;;;;;21.96;30.33;97322.38;5038172;28;1894;-77
2023/04/21 05:48:09;;;;;;;;;;;;;;;21.78;30.29;97327.97;5037144;28;927;-78
2023/04/21 05:50:34;;;;;;;;;;;;;;;22.13;29.96;97330.72;5020859;28;898;-78
2023/04/21 05:53:01;;;;;;;;;;;;;;;21.91;30.27;97331.47;5037563;28;1114;-78
2023/04/21 05:55:26;;;;;;;;;;;;;;;21.67;30.89;97328.38;5038246;28;972;-79
2023/04/21 05:57:52;;;;;;;;;;;;;;;21.75;30.92;97326.81;5037604;28;912;-78
2023/04/21 06:00:17;;;;;;;;;;;;;;;21.65;30.71;97325.19;5038289;28;854;-78
2023/04/21 06:02:43;;;;;;;;;;;;;;;22.27;30.62;97333.75;5037842;28;961;-78
2023/04/21 06:05:09;;;;;;;;;;;;;;;22.65;30.10;97341.13;5019938;28;1890;-78
2023/04/21 06:07:36;;;;;;;;;;;;;;;22.71;29.64;97342.09;5037650;28;913;-77
2023/04/21 06:10:02;;;;;;;;;;;;;;;22.50;29.71;97354.31;5020350;28;1026;-78
2023/04/21 06:12:27;;;;;;;;;;;;;;;21.93;30.75;97357.31;5020459;28;944;-79
2023/04/21 06:14:56;;;;;;;;;;;;;;;21.92;30.29;97374.78;5037365;28;923;-80
2023/04/21 06:17:22;;;;;;;;;;;;;;;21.89;30.10;97378.53;5004245;28;875;-79
2023/04/21 06:19:51;;;;;;;;;;;;;;;22.30;30.47;97386.66;4995271;28;955;-79
2023/04/21 06:22:21;;;;;;;;;;;;;;;22.23;30.70;97381.28;4979689;28;978;-79
2023/04/21 06:24:46;;;;;;;;;;;;;;;22.65;29.85;97378.00;4978991;28;1950;-80
2023/04/21 06:27:12;;;;;;;;;;;;;;;22.52;30.07;97380.16;4980005;28;990;-78
2023/04/21 06:29:38;;;;;;;;;;;;;;;21.90;30.43;97369.56;4979012;28;1131;-78
2023/04/21 06:32:03;;;;;;;;;;;;;;;22.02;30.19;97370.72;4979943;28;1008;-79
2023/04/21 06:34:29;;;;;;;;;;;;;;;21.82;30.34;97380.38;4979573;28;1026;-79
2023/04/21 06:36:55;;;;;;;;;;;;;;;21.79;30.61;97383.34;4995810;28;1042;-79
2023/04/21 06:39:20;;;;;;;;;;;;;;;21.90;30.53;97380.09;4947295;28;1128;-78
2023/04/21 06:41:46;;;;;;;;;;;;;;;21.89;30.66;97375.69;4963454;28;1104;-79
2023/04/21 06:44:12;;;;;;;;;;;;;;;21.93;30.51;97384.84;4979425;28;1149;-79
2023/04/21 06:46:41;;;;;;;;;;;;;;;22.28;30.71;97386.34;4979289;28;1974;-79
2023/04/21 06:49:07;;;;;;;;;;;;;;;22.90;29.81;97393.22;4978832;28;984;-79
2023/04/21 06:51:32;;;;;;;;;;;;;;;22.90;29.36;97391.19;5029561;28;987;-77
2023/04/21 06:53:58;;;;;;;;;;;;;;;22.53;29.99;97393.06;5002700;28;897;-77
2023/04/21 06:56:25;;;;;;;;;;;;;;;22.23;30.17;97391.84;5019344;28;1020;-77
2023/04/21 06:58:51;;;;;;;;;;;;;;;21.83;30.77;97390.44;5036325;28;996;-77
2023/04/21 07:01:16;;;;;;;;;;;;;;;22.05;30.45;97400.97;5019418;28;954;-76
2023/04/21 07:03:42;;;;;;;;;;;;;;;22.36;30.39;97393.31;5036725;28;897;-77
2023/04/21 07:06:07;;;;;;;;;;;;;;;22.42;30.19;97387.03;5036823;28;1899;-77
2023/04/21 07:08:33;;;;;;;;;;;;;;;22.77;29.58;97396.94;5019114;28;953;-75
2023/04/21 07:10:58;;;;;;;;;;;;;;;22.29;29.89;97396.44;5037160;28;970;-77
2023/04/21 07:13:24;;;;;;;;;;;;;;;21.77;30.64;97400.00;5018787;28;999;-76
2023/04/21 07:15:49;;;;;;;;;;;;;;;21.59;30.68;97389.31;5019684;28;1037;-76
2023/04/21 07:18:15;;;;;;;;;;;;;;;21.84;30.60;97392.03;5036037;28;918;-76
2023/04/21 07:20:40;;;;;;;;;;;;;;;21.77;30.78;97394.34;5019604;28;951;-77
2023/04/21 07:23:06;;;;;;;;;;;;;;;21.88;30.76;97388.28;5036717;28;925;-76
2023/04/21 07:25:31;;;;;;;;;;;;;;;21.76;30.61;97382.22;5037071;28;1898;-77
2023/04/21 07:27:57;;;;;;;;;;;;;;;22.14;30.35;97392.56;5019151;28;1991;-77
2023/04/21 07:30:22;;;;;;;;;;;;;;;22.61;30.28;97395.16;5019022;28;955;-77
2023/04/21 07:32:48;;;;;;;;;;;;;;;22.57;30.31;97388.03;5002773;28;1182;-77
2023/04/21 07:35:13;;;;;;;;;;;;;;;22.69;30.02;97384.31;5019007;28;915;-77
2023/04/21 07:37:39;;;;;;;;;;;;;;;22.43;30.27;97377.25;5019189;28;978;-78
2023/04/21 07:40:05;;;;;;;;;;;;;;;22.04;30.36;97373.91;5036479;28;916;-77
2023/04/21 07:42:31;;;;;;;;;;;;;;;21.81;30.46;97378.00;5002650;28;896;-78
2023/04/21 07:44:56;;;;;;;;;;;;;;;22.04;30.29;97365.41;4994690;28;1975;-78
2023/04/21 07:47:22;;;;;;;;;;;;;;;21.96;30.33;97366.91;4962813;28;1202;-78
2023/04/21 07:49:48;;;;;;;;;;;;;;;22.03;30.13;97366.66;4959037;28;1246;-77
2023/04/21 07:52:13;;;;;;;;;;;;;;;21.92;30.43;97371.94;4975227;28;983;-78
2023/04/21 07:54:39;;;;;;;;;;;;;;;21.99;30.49;97366.78;4959303;28;1032;-76
2023/04/21 07:57:06;;;;;;;;;;;;;;;22.27;30.87;97362.06;4959427;28;994;-78
2023/04/21 07:59:31;;;;;;;;;;;;;;;22.75;30.21;97365.44;4974966;28;942;-78
2023/04/21 08:01:57;;;;;;;;;;;;;;;22.68;30.08;97365.72;4959650;28;928;-78
2023/04/21 08:04:22;;;;;;;;;;;;;;;22.65;30.15;97361.00;4974901;28;907;-77
2023/04/21 08:06:47;;;;;;;;;;;;;;;22.07;30.85;97370.13;4959449;28;1903;-78
2023/04/21 08:09:13;;;;;;;;;;;;;;;21.93;30.91;97374.31;4958886;28;980;-78
2023/04/21 08:11:38;;;;;;;;;;;;;;;21.91;30.78;97370.34;4976141;28;1124;-78
2023/04/21 08:14:04;;;;;;;;;;;;;;;22.00;30.37;97373.25;4978351;28;949;-78
2023/04/21 08:16:30;;;;;;;;;;;;;;;21.94;30.56;97375.88;4977106;28;949;-77
2023/04/21 08:18:55;;;;;;;;;;;;;;;21.96;30.84;97367.72;4981973;28;942;-78
2023/04/21 08:21:21;;;;;;;;;;;;;;;22.05;30.44;97372.66;5012004;28;1068;-78
2023/04/21 08:23:46;;;;;;;;;;;;;;;21.84;30.70;97377.09;5022042;28;1035;-77
2023/04/21 08:26:12;;;;;;;;;;;;;;;22.27;30.83;97381.91;5022737;28;1914;-78
2023/04/21 08:28:37;;;;;;;;;;;;;;;22.75;30.18;97381.66;5039203;28;925;-78
2023/04/21 08:31:04;;;;;;;;;;;;;;;22.81;29.59;97372.06;5040171;28;937;-78
2023/04/21 08:33:29;;;;;;;;;;;;;;;22.38;30.05;97378.66;5021648;28;987;-77
2023/04/21 08:35:55;;;;;;;;;;;;;;;22.15;30.27;97379.19;5040140;28;897;-77
2023/04/21 08:38:20;;;;;;;;;;;;;;;22.01;30.27;97381.28;5039214;28;1049;-78
2023/04/21 08:40:46;;;;;;;;;;;;;;;21.91;30.57;97390.97;5040063;28;925;-78
2023/04/21 08:43:12;;;;;;;;;;;;;;;22.38;30.27;97386.38;5005257;28;1009;-77
2023/04/21 08:45:37;;;;;;;;;;;;;;;22.62;30.16;97384.59;5022081;28;1902;-77
2023/04/21 08:48:03;;;;;;;;;;;;;;;22.59;29.85;97383.50;5021431;28;865;-78
2023/04/21 08:50:29;;;;;;;;;;;;;;;22.51;29.89;97387.06;5039566;28;962;-78
2023/04/21 08:52:55;;;;;;;;;;;;;;;22.12;30.25;97380.88;5039627;28;901;-76
2023/04/21 08:55:39;;;;;;;;;;;;;;;21.83;30.66;97381.94;5039750;28;906;-78
2023/04/21 08:58:05;;;;;;;;;;;;;;;21.78;30.73;97382.56;5039384;28;998;-78
2023/04/21 09:00:31;;;;;;;;;;;;;;;21.89;30.62;97379.31;5005641;28;1216;-77
2023/04/21 09:02:59;;;;;;;;;;;;;;;22.24;29.69;97382.88;5021004;28;957;-78
2023/04/21 09:05:26;;;;;;;;;;;;;;;22.14;30.09;97372.72;5021212;28;1975;-78
2023/04/21 09:07:52;;;;;;;;;;;;;;;21.91;30.35;97370.34;5020873;28;1008;-78
2023/04/21 09:10:22;;;;;;;;;;;;;;;22.26;30.74;97380.34;5021056;28;951;-77
2023/04/21 09:12:51;;;;;;;;;;;;;;;22.44;30.18;97384.53;5038616;28;956;-78
2023/04/21 09:15:17;;;;;;;;;;;;;;;22.62;30.21;97376.09;5038827;28;956;-77
2023/04/21 09:17:43;;;;;;;;;;;;;;;22.33;30.19;97380.09;5021557;28;1090;-78
2023/04/21 09:20:16;;;;;;;;;;;;;;;22.12;30.21;97378.06;5038882;28;909;-78
2023/04/21 09:22:42;;;;;;;;;;;;;;;21.54;30.66;97341.78;5038880;28;1195;-78
2023/04/21 09:25:07;;;;;;;;;;;;;;;21.76;30.60;97375.75;5038077;28;1898;-76
2023/04/21 09:27:36;;;;;;;;;;;;;;;22.06;30.30;97379.88;4980579;28;982;-78
2023/04/21 09:30:05;;;;;;;;;;;;;;;21.97;30.29;97380.63;4996761;28;927;-78
2023/04/21 09:32:37;;;;;;;;;;;;;;;21.95;30.39;97382.34;4958079;29;1000;-78
2023/04/21 09:35:05;;;;;;;;;;;;;;;21.69;30.66;97387.34;4919797;29;977;-77
2023/04/21 09:37:33;;;;;;;;;;;;;;;21.73;31.02;97383.16;4904102;29;1216;-78
2023/04/21 09:39:59;;;;;;;;;;;;;;;22.50;30.25;97371.34;4919792;29;1069;-77
2023/04/21 09:42:28;;;;;;;;;;;;;;;22.78;29.64;97375.03;4920218;29;1007;-78
2023/04/21 09:44:54;;;;;;;;;;;;;;;22.86;29.21;97377.13;4919272;29;1979;-78
2023/04/21 09:47:19;;;;;;;;;;;;;;;22.38;29.84;97375.03;4903846;29;939;-77
2023/04/21 09:49:45;;;;;;;;;;;;;;;22.00;30.48;97379.69;4903558;29;985;-77
2023/04/21 09:52:12;;;;;;;;;;;;;;;21.78;30.63;97391.03;4903901;29;1116;-78
2023/04/21 09:54:40;;;;;;;;;;;;;;;21.77;30.48;97383.81;4903977;29;1041;-78
2023/04/21 09:57:05;;;;;;;;;;;;;;;21.85;30.40;97385.09;4888480;29;1039;-77
2023/04/21 09:59:31;;;;;;;;;;;;;;;22.03;30.34;97380.81;4937826;29;952;-77
2023/04/21 10:01:56;;;;;;;;;;;;;;;21.83;30.39;97392.50;4957752;29;1001;-78
2023/04/21 10:04:23;;;;;;;;;;;;;;;22.21;30.46;97377.31;4958156;28;992;-78
2023/04/21 10:06:49;;;;;;;;;;;;;;;22.40;30.04;97383.88;4997192;28;1903;-78
2023/04/21 10:09:15;;;;;;;;;;;;;;;22.66;29.73;97396.59;5019963;28;967;-79
2023/04/21 10:11:40;;;;;;;;;;;;;;;22.56;29.72;97389.31;5020451;28;986;-77
2023/04/21 10:14:06;;;;;;;;;;;;;;;22.26;29.92;97386.00;5003762;28;868;-78
2023/04/21 10:16:34;;;;;;;;;;;;;;;21.96;30.28;97383.91;5011653;28;1638;-78
2023/04/21 10:19:00;;;;;;;;;;;;;;;21.80;30.48;97394.19;5017714;28;811;-78
2023/04/21 10:21:25;;;;;;;;;;;;;;;22.33;29.77;97385.75;5000731;28;959;-78
2023/04/21 10:23:52;;;;;;;;;;;;;;;21.93;30.27;97382.03;5017253;28;910;-78
2023/04/21 10:26:22;;;;;;;;;;;;;;;21.98;30.14;97381.44;5000738;28;1909;-77
2023/04/21 10:28:51;;;;;;;;;;;;;;;21.87;30.52;97375.38;5017416;28;983;-78
2023/04/21 10:31:19;;;;;;;;;;;;;;;22.10;29.99;97374.88;5000644;28;1140;-78
2023/04/21 10:34:03;;;;;;;;;;;;;;;22.48;29.95;97368.16;5016514;28;1066;-78
2023/04/21 10:36:29;;;;;;;;;;;;;;;22.81;29.04;97372.06;5017979;28;1081;-78
2023/04/21 10:38:56;;;;;;;;;;;;;;;22.86;29.07;97371.44;5017191;28;1219;-76
2023/04/21 10:41:25;;;;;;;;;;;;;;;22.12;30.29;97369.56;5017541;28;939;-77
2023/04/21 10:43:51;;;;;;;;;;;;;;;22.23;29.83;97369.97;5017152;28;906;-77
2023/04/21 10:46:33;;;;;;;;;;;;;;;21.80;30.55;97374.38;5017501;28;1902;-78
2023/04/21 10:49:09;;;;;;;;;;;;;;;21.70;30.36;97378.38;4983618;28;958;-78
2023/04/21 10:51:53;;;;;;;;;;;;;;;22.19;30.38;97368.50;4983713;28;1083;-78
2023/04/21 10:54:21;;;;;;;;;;;;;;;22.47;29.43;97383.59;5016704;28;1045;-78
2023/04/21 10:56:47;;;;;;;;;;;;;;;22.67;29.18;97375.47;5017707;28;894;-78
2023/04/21 10:59:12;;;;;;;;;;;;;;;22.31;29.67;97381.78;4983427;28;973;-77
2023/04/21 11:01:41;;;;;;;;;;;;;;;22.03;30.06;97378.00;4983653;28;1203;-77
2023/04/21 11:04:12;;;;;;;;;;;;;;;22.13;29.61;97387.38;4999001;28;1304;-78
2023/04/21 11:06:37;;;;;;;;;;;;;;;21.63;30.46;97389.97;4999873;28;1894;-78
2023/04/21 11:09:03;;;;;;;;;;;;;;;21.91;30.07;97387.34;5017249;28;922;-78
2023/04/21 11:11:28;;;;;;;;;;;;;;;21.85;29.98;97390.78;5017069;28;1156;-78
2023/04/21 11:13:54;;;;;;;;;;;;;;;22.26;29.87;97383.19;5016627;28;978;-76
2023/04/21 11:16:20;;;;;;;;;;;;;;;22.80;29.33;97384.69;5027566;28;1864;-78
2023/04/21 11:18:45;;;;;;;;;;;;;;;22.87;29.26;97377.91;5007713;28;1744;-77
2023/04/21 11:21:11;;;;;;;;;;;;;;;22.58;29.14;97378.28;5017357;28;1153;-77
2023/04/21 11:23:42;;;;;;;;;;;;;;;22.43;29.36;97371.59;5016439;28;987;-78
2023/04/21 11:26:07;;;;;;;;;;;;;;;22.27;29.73;97376.25;5015739;28;1875;-78
2023/04/21 11:28:33;;;;;;;;;;;;;;;22.02;30.06;97382.06;5016367;28;901;-77
2023/04/21 11:30:59;;;;;;;;;;;;;;;22.00;30.44;97362.69;5017075;28;959;-77
2023/04/21 11:33:27;;;;;;;;;;;;;;;22.62;30.31;97367.59;5016656;28;896;-77
2023/04/21 11:35:57;;;;;;;;;;;;;;;22.73;29.90;97362.25;5016678;28;860;-77
2023/04/21 11:38:23;;;;;;;;;;;;;;;22.84;29.68;97373.16;5015705;28;994;-78
2023/04/21 11:40:50;;;;;;;;;;;;;;;22.73;29.27;97362.25;4999123;28;1230;-76
2023/04/21 11:43:15;;;;;;;;;;;;;;;21.77;30.83;97349.81;4998928;28;972;-78
2023/04/21 11:45:41;;;;;;;;;;;;;;;21.94;29.86;97358.91;5016442;28;1977;-78
2023/04/21 11:48:13;;;;;;;;;;;;;;;22.09;29.86;97354.25;5019573;28;937;-78
2023/04/21 11:50:39;;;;;;;;;;;;;;;22.07;30.02;97350.28;4985682;28;908;-78
2023/04/21 11:53:05;;;;;;;;;;;;;;;22.26;29.73;97346.34;4986195;28;1134;-77
2023/04/21 11:55:31;;;;;;;;;;;;;;;22.86;29.24;97348.75;4998441;28;1557;-78
2023/04/21 11:57:57;;;;;;;;;;;;;;;23.24;29.00;97344.72;4998077;28;927;-77
2023/04/21 12:00:22;;;;;;;;;;;;;;;23.04;29.00;97352.91;4998026;28;1071;-78
2023/04/21 12:02:54;;;;;;;;;;;;;;;22.76;29.12;97349.22;4997923;28;1060;-78
2023/04/21 12:05:20;;;;;;;;;;;;;;;22.38;29.67;97355.19;4998205;28;1910;-78
2023/04/21 12:07:50;;;;;;;;;;;;;;;22.59;29.08;97352.31;4997976;28;883;-76
2023/04/21 12:10:19;;;;;;;;;;;;;;;22.28;29.16;97358.00;4998198;28;929;-77
2023/04/21 12:12:45;;;;;;;;;;;;;;;22.17;29.12;97348.34;4981945;28;1024;-77
2023/04/21 12:15:11;;;;;;;;;;;;;;;22.12;29.27;97358.22;4981551;28;1212;-78
2023/04/21 12:17:47;;;;;;;;;;;;;;;22.19;28.88;97357.97;4998083;28;1043;-78
2023/04/21 12:20:16;;;;;;;;;;;;;;;22.07;29.17;97355.97;4981539;28;1025;-78
2023/04/21 12:22:41;;;;;;;;;;;;;;;22.31;28.88;97357.06;4998150;28;984;-78
2023/04/21 12:25:10;;;;;;;;;;;;;;;22.55;29.10;97368.69;4997522;28;1979;-78
2023/04/21 12:27:35;;;;;;;;;;;;;;;22.66;28.53;97371.06;5002668;28;970;-78
2023/04/21 12:30:02;;;;;;;;;;;;;;;22.67;28.80;97352.78;5019662;28;955;-78
2023/04/21 12:32:28;;;;;;;;;;;;;;;22.01;29.51;97352.16;5018578;28;1033;-78
2023/04/21 12:34:54;;;;;;;;;;;;;;;22.12;29.50;97355.38;5001605;28;1076;-78
2023/04/21 12:37:19;;;;;;;;;;;;;;;21.98;29.41;97356.72;5019668;28;1016;-77
2023/04/21 12:39:45;;;;;;;;;;;;;;;21.62;29.82;97359.31;5001793;28;1119;-78
2023/04/21 12:42:10;;;;;;;;;;;;;;;21.81;29.53;97356.16;5018442;28;1440;-78
2023/04/21 12:44:36;;;;;;;;;;;;;;;22.22;29.32;97351.34;5019101;28;998;-77
2023/04/21 12:47:02;;;;;;;;;;;;;;;22.78;28.48;97352.34;5018505;28;1907;-77
2023/04/21 12:49:27;;;;;;;;;;;;;;;22.60;28.74;97353.09;5001792;28;1267;-77
2023/04/21 12:51:53;;;;;;;;;;;;;;;22.34;29.06;97358.19;5018027;28;893;-78
2023/04/21 12:54:18;;;;;;;;;;;;;;;21.98;29.32;97358.75;5001935;28;1232;-78
2023/04/21 12:56:44;;;;;;;;;;;;;;;21.83;29.53;97361.34;5018287;28;1012;-78